Time;durP1;ratioP1;P1;durP2;ratioP2;P2;SDS_P1;SDS_P2;PMS_P1;PMS_P2;Temp;Humidity;BMP_temperature;BMP_pressure;BME280_temperature;BME280_humidity;BME280_pressure;Samples;Min_cycle;Max_cycle;Signal;HPM_P1;HPM_P2
2022/07/24 00:01:42;;;;;;;2.90;2.70;;;23.30;60.90;;;;;;10384184;28;20155;-52
2022/07/24 00:06:43;;;;;;;3.85;3.00;;;23.30;60.90;;;;;;10369832;28;20404;-53
2022/07/24 00:11:44;;;;;;;3.30;3.00;;;23.30;60.90;;;;;;10369106;28;20481;-49
2022/07/24 00:16:44;;;;;;;4.85;2.85;;;23.20;60.90;;;;;;10370406;28;20033;-49
2022/07/24 00:21:46;;;;;;;2.90;2.60;;;23.20;60.80;;;;;;10375221;28;20040;-52
2022/07/24 00:26:47;;;;;;;3.60;3.10;;;23.20;60.90;;;;;;10383209;28;20030;-50
2022/07/24 00:31:48;;;;;;;3.63;2.92;;;23.20;60.90;;;;;;10384321;28;20620;-49
2022/07/24 00:36:49;;;;;;;4.63;3.22;;;23.20;60.90;;;;;;10382495;28;20064;-48
2022/07/24 00:41:52;;;;;;;3.88;3.13;;;23.20;60.90;;;;;;10369033;28;20046;-49
2022/07/24 00:46:53;;;;;;;4.47;2.50;;;23.20;60.90;;;;;;10368986;28;20469;-50
2022/07/24 00:51:54;;;;;;;3.47;2.55;;;23.20;60.90;;;;;;10369396;28;20034;-50
2022/07/24 00:56:55;;;;;;;4.03;2.72;;;23.20;60.90;;;;;;10368946;28;20092;-49
2022/07/24 01:01:55;;;;;;;3.22;2.58;;;23.20;60.90;;;;;;10368425;28;20013;-48
2022/07/24 01:06:56;;;;;;;4.25;2.88;;;23.10;60.80;;;;;;10367022;28;20057;-49
2022/07/24 01:11:58;;;;;;;4.05;2.47;;;23.10;60.80;;;;;;10368273;28;20041;-49
2022/07/24 01:16:59;;;;;;;3.35;3.05;;;23.10;60.90;;;;;;10376930;28;20034;-52
2022/07/24 01:21:59;;;;;;;3.28;2.53;;;23.10;60.90;;;;;;10374468;28;20477;-49
2022/07/24 01:27:00;;;;;;;3.80;2.95;;;23.10;60.90;;;;;;10379630;28;20087;-49
2022/07/24 01:32:01;;;;;;;3.80;2.95;;;23.10;60.90;;;;;;10394304;28;20026;-52
2022/07/24 01:37:02;;;;;;;3.22;2.78;;;23.10;60.90;;;;;;10366344;28;20133;-51
2022/07/24 01:42:03;;;;;;;3.55;2.85;;;23.10;60.90;;;;;;10366258;28;20045;-49
2022/07/24 01:47:05;;;;;;;3.55;2.75;;;23.10;60.90;;;;;;10367777;28;20409;-50
2022/07/24 01:52:05;;;;;;;3.13;2.58;;;23.10;60.90;;;;;;10379378;28;20022;-49
2022/07/24 01:57:06;;;;;;;3.20;2.85;;;23.10;60.90;;;;;;10367256;28;20030;-48
2022/07/24 02:02:07;;;;;;;3.60;2.80;;;23.10;60.90;;;;;;10367267;28;20049;-53
2022/07/24 02:07:07;;;;;;;3.25;2.75;;;23.10;60.90;;;;;;10367189;28;20104;-50
2022/07/24 02:12:08;;;;;;;4.20;3.05;;;23.10;60.90;;;;;;10379279;28;20554;-49
2022/07/24 02:17:09;;;;;;;3.33;3.00;;;23.10;60.90;;;;;;10365457;28;20038;-49
2022/07/24 02:22:10;;;;;;;4.10;3.20;;;23.10;60.90;;;;;;10375908;28;20025;-49
2022/07/24 02:27:11;;;;;;;3.35;2.70;;;23.10;60.90;;;;;;10408198;28;20072;-50
2022/07/24 02:32:11;;;;;;;3.42;3.05;;;23.00;60.90;;;;;;10391289;28;20034;-50
2022/07/24 02:37:12;;;;;;;4.00;2.95;;;23.00;60.90;;;;;;10373797;28;20034;-50
2022/07/24 02:42:13;;;;;;;2.55;2.22;;;23.00;60.90;;;;;;10373659;28;20042;-49
2022/07/24 02:47:14;;;;;;;3.60;3.00;;;23.00;60.90;;;;;;10372617;28;20038;-49
2022/07/24 02:52:15;;;;;;;3.38;2.78;;;23.00;60.90;;;;;;10386871;28;20401;-48
2022/07/24 02:57:15;;;;;;;3.40;2.40;;;23.00;60.90;;;;;;10371580;28;20046;-50
2022/07/24 03:02:16;;;;;;;3.47;2.85;;;23.00;60.90;;;;;;10386248;28;20057;-50
2022/07/24 03:07:17;;;;;;;2.95;2.63;;;23.00;60.90;;;;;;10372996;28;20034;-49
2022/07/24 03:12:17;;;;;;;4.07;2.83;;;23.00;60.90;;;;;;10371458;28;20548;-49
2022/07/24 03:17:18;;;;;;;3.95;3.40;;;23.00;61.00;;;;;;10372559;28;20026;-48
2022/07/24 03:22:19;;;;;;;3.55;2.72;;;23.00;61.00;;;;;;10378747;28;20072;-48
2022/07/24 03:27:20;;;;;;;4.90;3.50;;;23.00;61.00;;;;;;10377315;28;20072;-48
2022/07/24 03:32:21;;;;;;;3.55;2.85;;;23.00;61.10;;;;;;10387617;28;20542;-52
2022/07/24 03:37:22;;;;;;;3.53;2.88;;;23.00;61.00;;;;;;10370085;28;20091;-49
2022/07/24 03:42:23;;;;;;;3.80;2.88;;;23.00;61.10;;;;;;10369086;28;20052;-49
2022/07/24 03:47:23;;;;;;;3.55;2.70;;;23.00;61.10;;;;;;10369493;28;20045;-52
2022/07/24 03:52:25;;;;;;;3.90;3.20;;;22.90;61.00;;;;;;10382305;28;20084;-51
2022/07/24 03:57:25;;;;;;;4.05;2.70;;;22.90;61.00;;;;;;10367363;28;20032;-50
2022/07/24 04:02:26;;;;;;;3.60;3.08;;;22.90;61.10;;;;;;10411825;28;20123;-49
2022/07/24 04:07:27;;;;;;;3.92;3.22;;;22.90;61.10;;;;;;10385901;28;20440;-50
2022/07/24 04:12:27;;;;;;;4.45;2.83;;;22.90;61.10;;;;;;10387033;28;20033;-52
2022/07/24 04:17:28;;;;;;;3.63;3.13;;;22.90;61.10;;;;;;10377581;28;20125;-51
2022/07/24 04:22:29;;;;;;;4.35;3.50;;;22.90;61.10;;;;;;10385668;28;20022;-50
2022/07/24 04:27:29;;;;;;;4.03;3.22;;;22.90;61.10;;;;;;10384993;28;20159;-49
2022/07/24 04:32:30;;;;;;;4.03;3.35;;;22.90;61.10;;;;;;10405438;28;20030;-51
2022/07/24 04:37:31;;;;;;;3.45;3.05;;;22.90;61.20;;;;;;10387262;28;20052;-57
2022/07/24 04:42:32;;;;;;;3.97;3.13;;;22.90;61.20;;;;;;10395301;28;20116;-48
2022/07/24 04:47:32;;;;;;;3.95;3.38;;;22.90;61.10;;;;;;10409663;28;20037;-48
2022/07/24 04:52:33;;;;;;;6.10;3.95;;;22.90;61.50;;;;;;10407303;28;20401;-54
2022/07/24 04:57:34;;;;;;;7.72;4.68;;;23.00;61.80;;;;;;10409443;28;20025;-55
2022/07/24 05:02:34;;;;;;;8.32;3.75;;;23.00;62.40;;;;;;10408933;28;20499;-53
2022/07/24 05:07:35;;;;;;;7.75;5.18;;;23.10;62.90;;;;;;10369221;28;20114;-54
2022/07/24 05:12:36;;;;;;;16.75;5.13;;;23.00;62.70;;;;;;10381492;28;20030;-53
2022/07/24 05:17:37;;;;;;;20.05;5.10;;;23.00;62.90;;;;;;10367940;28;20038;-53
2022/07/24 05:22:38;;;;;;;10.90;5.28;;;23.10;62.90;;;;;;10374127;28;20057;-54
2022/07/24 05:27:38;;;;;;;9.55;4.85;;;23.10;63.00;;;;;;10391541;28;20689;-54
2022/07/24 05:32:39;;;;;;;17.88;6.47;;;23.10;63.00;;;;;;10392509;28;20645;-53
2022/07/24 05:37:40;;;;;;;16.55;6.40;;;23.00;62.90;;;;;;10378269;28;20101;-50
2022/07/24 05:42:40;;;;;;;10.05;4.53;;;23.00;62.80;;;;;;10363814;28;20038;-50
2022/07/24 05:47:41;;;;;;;11.32;5.18;;;23.00;62.50;;;;;;10365663;28;20030;-53
2022/07/24 05:52:42;;;;;;;11.00;5.03;;;23.00;62.50;;;;;;10378600;28;20047;-50
2022/07/24 05:57:46;;;;;;;6.50;4.68;;;23.00;62.30;;;;;;10391591;28;20379;-50
2022/07/24 06:02:47;;;;;;;9.25;5.13;;;23.00;62.30;;;;;;10369273;28;20037;-52
2022/07/24 06:07:48;;;;;;;6.60;4.18;;;23.00;62.40;;;;;;10374076;28;20034;-51
2022/07/24 06:12:49;;;;;;;7.53;4.65;;;23.00;62.40;;;;;;10360938;28;20036;-49
2022/07/24 06:17:50;;;;;;;8.70;5.65;;;23.00;62.40;;;;;;10382893;28;20030;-49
2022/07/24 06:22:51;;;;;;;10.65;4.72;;;22.90;62.30;;;;;;10379695;28;20026;-50
2022/07/24 06:27:53;;;;;;;6.28;4.65;;;22.90;62.40;;;;;;10377930;28;20020;-52
2022/07/24 06:32:57;;;;;;;5.78;4.55;;;22.90;62.40;;;;;;10380292;28;20776;-52
2022/07/24 06:38:00;;;;;;;5.72;4.35;;;22.90;62.40;;;;;;10398164;28;20030;-51
2022/07/24 06:43:00;;;;;;;7.20;4.45;;;22.90;62.50;;;;;;10413756;28;20077;-51
2022/07/24 06:48:02;;;;;;;6.20;4.60;;;22.90;62.40;;;;;;10411798;28;20504;-52
2022/07/24 06:53:03;;;;;;;5.90;5.30;;;22.90;62.50;;;;;;10413400;28;20033;-49
2022/07/24 06:58:04;;;;;;;5.93;4.32;;;22.90;62.50;;;;;;10413956;28;20124;-49
2022/07/24 07:03:05;;;;;;;10.43;6.00;;;22.90;62.50;;;;;;10409048;28;20026;-53
2022/07/24 07:08:06;;;;;;;9.80;6.35;;;22.90;62.90;;;;;;10404868;28;20397;-54
2022/07/24 07:13:06;;;;;;;11.43;6.35;;;23.00;63.50;;;;;;10408225;28;20040;-54
2022/07/24 07:18:07;;;;;;;8.00;5.35;;;23.00;63.80;;;;;;10410031;28;20030;-54
2022/07/24 07:23:08;;;;;;;10.40;5.50;;;23.00;62.80;;;;;;10387864;28;20045;-52
2022/07/24 07:28:08;;;;;;;16.77;6.35;;;23.00;62.90;;;;;;10395686;28;20493;-49
2022/07/24 07:33:09;;;;;;;20.92;7.72;;;23.00;63.50;;;;;;10388854;28;20040;-52
2022/07/24 07:38:10;;;;;;;14.57;6.45;;;23.00;62.80;;;;;;10392895;28;20022;-49
2022/07/24 07:43:11;;;;;;;11.27;6.13;;;23.10;62.60;;;;;;10387085;28;20061;-54
2022/07/24 07:48:11;;;;;;;11.25;5.65;;;23.10;62.30;;;;;;10388454;28;20665;-52
2022/07/24 07:53:12;;;;;;;12.93;6.15;;;23.10;62.30;;;;;;10400476;28;20548;-52
2022/07/24 07:58:13;;;;;;;18.52;6.68;;;23.10;61.90;;;;;;10393405;28;20414;-51
2022/07/24 08:03:14;;;;;;;16.17;6.30;;;23.10;60.60;;;;;;10383279;28;20091;-50
2022/07/24 08:08:14;;;;;;;15.70;6.22;;;23.10;61.20;;;;;;10396849;28;20038;-49
2022/07/24 08:13:17;;;;;;;18.10;5.90;;;23.20;61.10;;;;;;10394564;28;20392;-52
2022/07/24 08:18:18;;;;;;;15.00;6.00;;;23.20;61.30;;;;;;10384301;28;20037;-48
2022/07/24 08:23:19;;;;;;;14.82;5.32;;;23.20;61.20;;;;;;10381059;28;20034;-48
2022/07/24 08:28:21;;;;;;;25.35;6.72;;;23.20;62.50;;;;;;10375326;28;20056;-51
2022/07/24 08:33:22;;;;;;;20.50;6.90;;;23.20;61.30;;;;;;10367770;28;20516;-49
2022/07/24 08:38:22;;;;;;;17.40;6.63;;;23.20;60.60;;;;;;10371586;28;20028;-52
2022/07/24 08:43:23;;;;;;;21.58;6.55;;;23.30;63.40;;;;;;10387266;28;20057;-51
2022/07/24 08:48:26;;;;;;;14.27;5.97;;;23.40;64.40;;;;;;10368715;28;20029;-49
2022/07/24 08:53:27;;;;;;;11.73;5.93;;;23.30;60.90;;;;;;10378376;28;20029;-51
2022/07/24 08:58:27;;;;;;;10.35;5.97;;;23.30;61.20;;;;;;10393043;28;20030;-53
2022/07/24 09:03:28;;;;;;;20.00;5.53;;;23.30;64.40;;;;;;10367141;28;20029;-48
2022/07/24 09:08:29;;;;;;;12.25;6.85;;;23.30;62.00;;;;;;10378198;28;20041;-51
2022/07/24 09:14:29;;;;;;;9.50;6.03;;;23.40;62.00;;;;;;10366932;28;20038;-53
2022/07/24 09:19:08;;;;;;;10.02;5.68;;;23.40;60.10;;;;;;10367163;28;20042;-55
2022/07/24 09:24:21;;;;;;;8.57;5.97;;;23.40;58.90;;;;;;10390141;28;20026;-53
2022/07/24 09:29:24;;;;;;;11.15;5.30;;;23.40;58.90;;;;;;10406388;28;20065;-54
2022/07/24 09:34:28;;;;;;;11.07;5.05;;;23.40;59.10;;;;;;10366490;28;20507;-51
2022/07/24 09:39:35;;;;;;;19.70;5.55;;;23.40;59.90;;;;;;10366162;28;20034;-51
2022/07/24 09:44:36;;;;;;;17.73;5.22;;;23.50;60.30;;;;;;10384205;28;20037;-52
2022/07/24 09:49:39;;;;;;;22.98;5.53;;;23.50;60.00;;;;;;10378607;28;20501;-52
2022/07/24 09:54:50;;;;;;;8.68;4.85;;;23.50;60.60;;;;;;10365651;28;20034;-51
2022/07/24 09:59:58;;;;;;;8.05;4.55;;;23.50;60.70;;;;;;10364927;28;20439;-52
2022/07/24 10:05:01;;;;;;;6.82;4.32;;;23.50;60.20;;;;;;10365700;28;20286;-51
2022/07/24 10:10:02;;;;;;;7.63;4.75;;;23.50;60.20;;;;;;10364346;28;20128;-51
2022/07/24 10:15:05;;;;;;;7.88;4.50;;;23.50;60.40;;;;;;10365806;28;20056;-48
2022/07/24 10:20:08;;;;;;;8.25;4.70;;;23.50;60.50;;;;;;10365199;28;20057;-48
2022/07/24 10:25:14;;;;;;;7.97;4.55;;;23.50;60.40;;;;;;10397467;28;20541;-51
2022/07/24 10:30:15;;;;;;;7.45;4.57;;;23.50;60.10;;;;;;10377930;28;20034;-53
2022/07/24 10:35:24;;;;;;;7.93;4.85;;;23.50;59.60;;;;;;10363556;28;20117;-53
2022/07/24 10:40:49;;;;;;;10.07;4.72;;;23.60;59.70;;;;;;10374664;28;20046;-52
2022/07/24 10:45:53;;;;;;;8.50;5.30;;;23.60;59.80;;;;;;10401286;28;20033;-53
2022/07/24 10:50:57;;;;;;;9.25;5.18;;;23.60;59.80;;;;;;10393364;28;20481;-52
2022/07/24 10:56:22;;;;;;;9.55;4.85;;;23.60;59.80;;;;;;10392794;28;20374;-49
2022/07/24 11:01:44;;;;;;;10.75;5.07;;;23.60;59.00;;;;;;10386666;28;20084;-54
2022/07/24 11:06:53;;;;;;;14.88;5.55;;;23.70;59.40;;;;;;10376331;28;20026;-53
2022/07/24 11:11:54;;;;;;;;;;;23.60;59.60;;;;;;10375414;28;20076;-54
2022/07/24 11:16:54;;;;;;;16.15;5.72;;;23.70;59.60;;;;;;10375829;28;19972;-53
2022/07/24 11:22:06;;;;;;;11.93;4.63;;;23.70;60.00;;;;;;10380864;28;20029;-54
2022/07/24 11:27:16;;;;;;;10.07;4.88;;;23.70;59.40;;;;;;10377071;28;20037;-53
2022/07/24 11:32:20;;;;;;;8.30;4.45;;;23.80;59.60;;;;;;10392792;28;20037;-54
2022/07/24 11:37:24;;;;;;;9.30;4.78;;;23.70;59.50;;;;;;10401185;28;20033;-54
2022/07/24 11:42:25;;;;;;;10.80;4.65;;;23.80;59.80;;;;;;10398196;28;20045;-54
2022/07/24 11:47:28;;;;;;;5.32;3.92;;;23.80;59.60;;;;;;10415213;28;20727;-53
2022/07/24 11:52:38;;;;;;;12.43;4.63;;;23.80;59.50;;;;;;10411913;28;20053;-51
2022/07/24 11:57:42;;;;;;;8.30;5.45;;;23.80;59.30;;;;;;10378089;28;20421;-54
2022/07/24 12:02:45;;;;;;;9.45;3.83;;;23.80;59.30;;;;;;10387116;28;20403;-54
2022/07/24 12:07:45;;;;;;;10.25;4.97;;;23.80;59.20;;;;;;10410611;28;20041;-52
2022/07/24 12:12:51;;;;;;;8.52;4.28;;;23.80;59.50;;;;;;10410738;28;20040;-52
2022/07/24 12:18:09;;;;;;;9.30;4.20;;;23.90;59.80;;;;;;10380269;28;20034;-55
2022/07/24 12:23:15;;;;;;;10.10;5.00;;;23.90;59.90;;;;;;10389326;28;20030;-49
2022/07/24 12:28:19;;;;;;;12.85;4.70;;;23.90;60.20;;;;;;10388830;28;20425;-53
2022/07/24 12:33:31;;;;;;;7.75;4.60;;;23.90;59.60;;;;;;10398283;28;20393;-51
2022/07/24 12:38:56;;;;;;;9.57;4.03;;;23.90;59.80;;;;;;10406032;28;20038;-50
2022/07/24 12:44:02;;;;;;;8.75;4.50;;;23.90;59.80;;;;;;10385864;28;20049;-51
2022/07/24 12:49:09;;;;;;;4.72;3.30;;;23.90;59.80;;;;;;10372524;28;20040;-53
2022/07/24 12:54:23;;;;;;;5.65;3.88;;;24.00;59.60;;;;;;10411601;28;20033;-47
2022/07/24 12:59:33;;;;;;;4.20;3.03;;;24.00;59.50;;;;;;10411315;28;20088;-47
2022/07/24 13:04:42;;;;;;;5.70;3.80;;;24.00;59.60;;;;;;10408273;28;20029;-48
2022/07/24 13:09:43;;;;;;;4.88;3.63;;;23.90;59.50;;;;;;10371671;28;20042;-50
2022/07/24 13:14:44;;;;;;;4.25;3.03;;;24.00;59.70;;;;;;10389137;28;20037;-50
2022/07/24 13:19:48;;;;;;;4.95;2.92;;;23.90;59.80;;;;;;10387726;28;20149;-50
2022/07/24 13:24:49;;;;;;;5.13;3.17;;;24.00;60.00;;;;;;10401877;28;20447;-48
2022/07/24 13:29:50;;;;;;;6.22;3.47;;;24.00;60.30;;;;;;10395129;28;20173;-52
2022/07/24 13:34:50;;;;;;;4.07;3.42;;;24.00;60.20;;;;;;10353502;28;20388;-53
2022/07/24 13:39:51;;;;;;;4.18;3.00;;;24.00;60.30;;;;;;10370582;28;20049;-51
2022/07/24 13:44:52;;;;;;;5.68;3.05;;;24.00;60.00;;;;;;10402487;28;20045;-48
2022/07/24 13:49:53;;;;;;;4.68;2.80;;;24.00;59.70;;;;;;10411378;28;20113;-53
2022/07/24 13:54:53;;;;;;;6.15;2.75;;;24.00;59.90;;;;;;10399387;28;20034;-51
2022/07/24 13:59:54;;;;;;;4.55;3.20;;;24.00;60.20;;;;;;10383915;28;20083;-50
2022/07/24 14:04:55;;;;;;;6.50;2.55;;;24.00;60.30;;;;;;10376652;28;20100;-50
2022/07/24 14:09:55;;;;;;;6.85;3.08;;;24.00;60.50;;;;;;10372129;28;20038;-50
2022/07/24 14:14:56;;;;;;;6.60;2.67;;;24.00;60.30;;;;;;10392046;28;20064;-50
2022/07/24 14:19:57;;;;;;;6.15;4.13;;;24.00;61.00;;;;;;10367265;28;20479;-51
2022/07/24 14:24:57;;;;;;;4.53;3.15;;;24.20;61.80;;;;;;10389906;28;20041;-50
2022/07/24 14:29:59;;;;;;;6.72;2.83;;;24.40;61.90;;;;;;10412862;28;20030;-54
2022/07/24 14:35:00;;;;;;;8.75;4.03;;;24.40;60.20;;;;;;10390627;28;20488;-49
2022/07/24 14:40:03;;;;;;;6.05;3.50;;;24.50;61.80;;;;;;10416477;28;20381;-52
2022/07/24 14:45:04;;;;;;;6.95;4.20;;;24.60;61.90;;;;;;10403531;28;20030;-50
2022/07/24 14:50:08;;;;;;;6.18;4.05;;;24.80;61.80;;;;;;10396589;28;20469;-52
2022/07/24 14:55:09;;;;;;;6.00;4.38;;;24.80;62.10;;;;;;10398524;28;20033;-52
2022/07/24 15:00:10;;;;;;;9.02;4.70;;;24.80;62.60;;;;;;10415505;28;20040;-55
2022/07/24 15:05:11;;;;;;;5.07;3.88;;;24.80;62.60;;;;;;10404996;28;20045;-50
2022/07/24 15:10:14;;;;;;;7.45;4.35;;;25.00;63.30;;;;;;10388450;28;20030;-52
2022/07/24 15:15:15;;;;;;;8.50;5.18;;;25.00;63.50;;;;;;10389279;28;20365;-53
2022/07/24 15:20:16;;;;;;;9.10;4.82;;;24.80;64.60;;;;;;10403543;28;20036;-50
2022/07/24 15:25:16;;;;;;;8.63;5.03;;;25.00;64.50;;;;;;10411749;28;20385;-50
2022/07/24 15:30:19;;;;;;;10.32;4.47;;;25.10;64.30;;;;;;10401215;28;20038;-52
2022/07/24 15:35:20;;;;;;;7.57;4.88;;;25.10;63.80;;;;;;10397032;28;20033;-53
2022/07/24 15:40:21;;;;;;;9.82;4.25;;;25.20;63.50;;;;;;10401483;28;20447;-57
2022/07/24 15:45:22;;;;;;;9.63;4.63;;;25.20;65.20;;;;;;10391260;28;20369;-54
2022/07/24 15:50:23;;;;;;;7.43;4.80;;;25.10;65.70;;;;;;10374966;28;20060;-56
2022/07/24 15:55:24;;;;;;;7.47;4.20;;;25.00;66.00;;;;;;10391108;28;20124;-55
2022/07/24 16:00:24;;;;;;;5.35;3.83;;;24.90;66.50;;;;;;10413751;28;20034;-55
2022/07/24 16:05:25;;;;;;;8.10;3.80;;;24.90;64.40;;;;;;10371291;28;20088;-52
2022/07/24 16:10:26;;;;;;;6.47;3.50;;;24.80;64.60;;;;;;10368386;28;20029;-53
2022/07/24 16:15:26;;;;;;;5.63;2.90;;;24.80;63.80;;;;;;10371567;28;20469;-52
2022/07/24 16:20:27;;;;;;;5.50;3.65;;;24.80;64.20;;;;;;10369517;28;20026;-53
2022/07/24 16:25:28;;;;;;;7.03;3.60;;;24.90;65.70;;;;;;10374668;28;20034;-54
2022/07/24 16:30:29;;;;;;;5.50;3.95;;;24.90;64.00;;;;;;10424762;28;20038;-54
2022/07/24 16:35:29;;;;;;;5.57;3.72;;;24.90;63.60;;;;;;10368684;28;20475;-53
2022/07/24 16:40:30;;;;;;;5.43;3.00;;;24.90;63.80;;;;;;10382198;28;20455;-52
2022/07/24 16:45:31;;;;;;;4.78;3.22;;;24.80;63.70;;;;;;10407150;28;20040;-49
2022/07/24 16:50:31;;;;;;;4.78;3.33;;;24.80;64.20;;;;;;10409034;28;20604;-52
2022/07/24 16:55:32;;;;;;;12.98;4.07;;;24.80;63.70;;;;;;10384672;28;20567;-53
2022/07/24 17:00:33;;;;;;;6.50;3.30;;;24.80;65.40;;;;;;10408702;28;20468;-52
2022/07/24 17:05:34;;;;;;;6.93;2.88;;;24.90;63.60;;;;;;10403205;28;20021;-53
2022/07/24 17:10:34;;;;;;;6.75;3.95;;;24.90;63.20;;;;;;10404532;28;20532;-55
2022/07/24 17:15:35;;;;;;;5.18;2.90;;;24.80;63.80;;;;;;10389597;28;20036;-54
2022/07/24 17:20:39;;;;;;;9.27;3.60;;;24.80;63.70;;;;;;10383832;28;20040;-55
2022/07/24 17:25:42;;;;;;;5.97;3.25;;;24.80;64.00;;;;;;10378267;28;20036;-52
2022/07/24 17:30:46;;;;;;;10.23;4.32;;;24.80;63.80;;;;;;10378047;28;20149;-52
2022/07/24 17:35:47;;;;;;;4.45;3.25;;;24.80;63.10;;;;;;10388755;28;20090;-53
2022/07/24 17:40:48;;;;;;;8.32;3.55;;;24.80;63.50;;;;;;10398167;28;20042;-54
2022/07/24 17:45:49;;;;;;;7.32;3.78;;;24.80;63.50;;;;;;10394855;28;20538;-53
2022/07/24 17:50:51;;;;;;;5.68;4.20;;;24.80;63.50;;;;;;10396751;28;20689;-54
2022/07/24 17:55:52;;;;;;;6.88;3.38;;;24.90;64.30;;;;;;10396758;28;20029;-53
2022/07/24 18:00:53;;;;;;;6.15;3.60;;;25.10;62.90;;;;;;10386524;28;20087;-54
2022/07/24 18:05:53;;;;;;;5.38;3.58;;;25.00;62.90;;;;;;10382697;28;20389;-52
2022/07/24 18:10:54;;;;;;;4.97;3.20;;;25.00;63.30;;;;;;10399518;28;21410;-54
2022/07/24 18:15:55;;;;;;;4.95;3.80;;;25.00;63.50;;;;;;10401423;28;20033;-54
2022/07/24 18:20:57;;;;;;;6.70;3.63;;;25.00;63.30;;;;;;10391287;28;20029;-52
2022/07/24 18:25:58;;;;;;;5.55;3.30;;;25.00;63.80;;;;;;10375036;28;20025;-53
2022/07/24 18:30:59;;;;;;;5.90;3.45;;;25.00;63.90;;;;;;10373781;28;20365;-53
2022/07/24 18:35:59;;;;;;;5.88;3.72;;;24.90;64.30;;;;;;10373565;28;20551;-55
2022/07/24 18:41:00;;;;;;;4.18;2.90;;;24.90;64.80;;;;;;10371933;28;20445;-51
2022/07/24 18:46:02;;;;;;;5.82;3.35;;;24.90;64.40;;;;;;10380977;28;20044;-53
2022/07/24 18:51:03;;;;;;;3.58;2.97;;;24.80;64.10;;;;;;10406966;28;20469;-54
2022/07/24 18:56:05;;;;;;;5.28;3.45;;;24.80;64.60;;;;;;10372979;28;20037;-55
2022/07/24 19:01:05;;;;;;;4.55;3.40;;;24.80;64.80;;;;;;10372698;28;20485;-53
2022/07/24 19:06:07;;;;;;;7.65;3.30;;;24.70;64.90;;;;;;10372286;28;20071;-53
2022/07/24 19:11:07;;;;;;;4.95;3.10;;;24.80;65.40;;;;;;10373255;28;20129;-53
2022/07/24 19:16:08;;;;;;;6.88;3.22;;;24.80;65.50;;;;;;10374531;28;20045;-53
2022/07/24 19:21:09;;;;;;;5.00;3.03;;;24.80;65.70;;;;;;10374985;28;20630;-49
2022/07/24 19:26:10;;;;;;;4.60;3.20;;;24.70;65.70;;;;;;10412336;28;20025;-54
2022/07/24 19:31:11;;;;;;;4.95;3.97;;;24.70;65.50;;;;;;10392081;28;20112;-52
2022/07/24 19:36:12;;;;;;;5.22;3.58;;;24.70;66.10;;;;;;10388295;28;20747;-53
2022/07/24 19:41:13;;;;;;;4.03;2.90;;;24.70;65.40;;;;;;10394254;28;20049;-53
2022/07/24 19:46:14;;;;;;;3.88;2.67;;;24.70;65.90;;;;;;10385776;28;20481;-54
2022/07/24 19:51:14;;;;;;;4.00;3.05;;;24.70;65.90;;;;;;10375087;28;20037;-51
2022/07/24 19:56:15;;;;;;;4.95;2.80;;;24.70;65.70;;;;;;10395314;28;20037;-53
2022/07/24 20:01:16;;;;;;;4.30;3.20;;;24.70;65.60;;;;;;10396209;28;20042;-54
2022/07/24 20:06:17;;;;;;;3.88;3.10;;;24.70;65.60;;;;;;10409875;28;20029;-52
2022/07/24 20:11:17;;;;;;;5.05;3.08;;;24.70;65.60;;;;;;10394465;28;20041;-51
2022/07/24 20:16:18;;;;;;;3.72;2.75;;;24.70;65.80;;;;;;10409388;28;20029;-52
2022/07/24 20:21:19;;;;;;;4.28;2.75;;;24.70;65.80;;;;;;10408132;28;20119;-54
2022/07/24 20:26:20;;;;;;;3.60;2.65;;;24.70;65.90;;;;;;10369442;28;20028;-54
2022/07/24 20:31:24;;;;;;;4.57;2.72;;;24.70;65.90;;;;;;10399642;28;20041;-52
2022/07/24 20:36:24;;;;;;;4.93;2.92;;;24.60;65.70;;;;;;10369081;28;20040;-51
2022/07/24 20:41:25;;;;;;;3.63;3.13;;;24.70;65.60;;;;;;10368537;28;20042;-48
2022/07/24 20:46:26;;;;;;;3.72;3.05;;;24.60;65.40;;;;;;10368593;28;20018;-51
2022/07/24 20:51:27;;;;;;;4.57;3.58;;;24.60;65.30;;;;;;10384714;28;20048;-51
2022/07/24 20:56:28;;;;;;;4.30;2.95;;;24.60;65.40;;;;;;10382880;28;20021;-53
2022/07/24 21:01:28;;;;;;;4.22;3.17;;;24.60;65.30;;;;;;10375995;28;20608;-53
2022/07/24 21:06:29;;;;;;;5.22;3.50;;;24.60;65.20;;;;;;10368473;28;20030;-51
2022/07/24 21:11:30;;;;;;;4.05;3.53;;;24.70;65.20;;;;;;10368376;28;20038;-53
2022/07/24 21:16:30;;;;;;;3.97;2.90;;;24.60;65.20;;;;;;10381272;28;20038;-53
2022/07/24 21:21:31;;;;;;;3.80;3.30;;;24.60;65.10;;;;;;10389444;28;20030;-52
2022/07/24 21:26:32;;;;;;;3.17;2.70;;;24.60;65.00;;;;;;10377692;28;20029;-52
2022/07/24 21:31:34;;;;;;;4.05;3.03;;;24.60;65.00;;;;;;10389310;28;20044;-53
2022/07/24 21:36:35;;;;;;;3.10;2.72;;;24.60;64.90;;;;;;10367839;28;20109;-53
2022/07/24 21:41:36;;;;;;;3.95;3.15;;;24.60;65.00;;;;;;10393344;28;20409;-52
2022/07/24 21:46:36;;;;;;;3.45;3.15;;;24.60;65.00;;;;;;10407818;28;20063;-52
2022/07/24 21:51:37;;;;;;;4.35;3.47;;;24.60;64.90;;;;;;10406177;28;20641;-53
2022/07/24 21:56:38;;;;;;;4.20;3.17;;;24.60;64.90;;;;;;10407584;28;20045;-53
2022/07/24 22:01:38;;;;;;;3.88;3.20;;;24.60;64.90;;;;;;10407158;28;20033;-52
2022/07/24 22:06:40;;;;;;;3.63;3.20;;;24.60;64.90;;;;;;10407164;28;20151;-53
2022/07/24 22:11:40;;;;;;;3.40;2.97;;;24.60;64.90;;;;;;10406907;28;20021;-53
2022/07/24 22:16:41;;;;;;;3.38;2.97;;;24.60;64.80;;;;;;10389723;28;20029;-51
2022/07/24 22:21:42;;;;;;;4.38;3.17;;;24.60;64.80;;;;;;10400273;28;20022;-51
2022/07/24 22:26:43;;;;;;;2.55;2.35;;;24.60;64.80;;;;;;10379163;28;20026;-52
2022/07/24 22:31:44;;;;;;;3.83;2.95;;;24.60;64.80;;;;;;10413630;28;20037;-52
2022/07/24 22:36:47;;;;;;;4.03;3.05;;;24.60;64.90;;;;;;10391484;28;20084;-51
2022/07/24 22:41:48;;;;;;;3.45;3.10;;;24.50;64.80;;;;;;10364290;28;20462;-51
2022/07/24 22:46:50;;;;;;;3.88;3.28;;;24.60;64.70;;;;;;10371657;28;20033;-52
2022/07/24 22:51:55;;;;;;;3.53;2.65;;;24.60;64.70;;;;;;10403719;28;20021;-51
2022/07/24 22:56:56;;;;;;;3.83;3.05;;;24.60;64.70;;;;;;10413680;28;20075;-51
2022/07/24 23:01:57;;;;;;;4.28;3.15;;;24.60;64.90;;;;;;10399307;28;20034;-51
2022/07/24 23:06:58;;;;;;;4.05;2.58;;;24.50;64.90;;;;;;10398643;28;20469;-51
2022/07/24 23:11:59;;;;;;;3.60;2.58;;;24.50;64.70;;;;;;10413148;28;20416;-52
2022/07/24 23:17:00;;;;;;;3.28;2.90;;;24.50;64.60;;;;;;10412800;28;20025;-51
2022/07/24 23:22:02;;;;;;;3.38;3.03;;;24.60;64.70;;;;;;10391477;28;20097;-50
2022/07/24 23:27:03;;;;;;;4.53;2.95;;;24.50;64.70;;;;;;10370310;28;20080;-52
2022/07/24 23:32:04;;;;;;;4.35;3.60;;;24.50;64.80;;;;;;10386109;28;20025;-51
2022/07/24 23:37:07;;;;;;;3.58;3.03;;;24.50;64.70;;;;;;10371000;28;20109;-52
2022/07/24 23:42:09;;;;;;;3.83;3.10;;;24.50;64.60;;;;;;10370596;28;20042;-51
2022/07/24 23:47:09;;;;;;;3.40;3.10;;;24.50;64.50;;;;;;10369483;28;20418;-52
2022/07/24 23:52:10;;;;;;;3.60;2.85;;;24.50;64.60;;;;;;10370459;28;20030;-52
2022/07/24 23:57:11;;;;;;;4.32;2.60;;;24.50;64.70;;;;;;10392922;28;20037;-52
